sensor_id;sensor_type;location;lat;lon;timestamp;pressure;altitude;pressure_sealevel;temperature;humidity
9277;BME280;4676;42.678;23.244;2023-02-28T00:01:19;94515.59;;;6.93;nan
9277;BME280;4676;42.678;23.244;2023-02-28T00:03:46;94514.88;;;6.88;nan
9277;BME280;4676;42.678;23.244;2023-02-28T00:06:12;94514.03;;;6.89;nan
9277;BME280;4676;42.678;23.244;2023-02-28T00:08:39;94523.34;;;6.84;nan
9277;BME280;4676;42.678;23.244;2023-02-28T00:11:07;94520.13;;;6.78;nan
9277;BME280;4676;42.678;23.244;2023-02-28T00:13:37;94524.88;;;6.93;nan
9277;BME280;4676;42.678;23.244;2023-02-28T00:16:06;94516.56;;;6.86;nan
9277;BME280;4676;42.678;23.244;2023-02-28T00:18:33;94528.50;;;6.78;nan
9277;BME280;4676;42.678;23.244;2023-02-28T00:21:00;94534.47;;;6.73;nan
9277;BME280;4676;42.678;23.244;2023-02-28T00:23:27;94531.25;;;6.66;nan
9277;BME280;4676;42.678;23.244;2023-02-28T00:25:54;94539.63;;;6.67;nan
9277;BME280;4676;42.678;23.244;2023-02-28T00:28:21;94530.53;;;6.58;nan
9277;BME280;4676;42.678;23.244;2023-02-28T00:30:49;94541.94;;;6.79;nan
9277;BME280;4676;42.678;23.244;2023-02-28T00:33:16;94539.63;;;6.68;nan
9277;BME280;4676;42.678;23.244;2023-02-28T00:35:43;94541.31;;;6.66;nan
9277;BME280;4676;42.678;23.244;2023-02-28T00:38:11;94545.44;;;6.70;nan
9277;BME280;4676;42.678;23.244;2023-02-28T00:40:38;94551.13;;;6.81;nan
9277;BME280;4676;42.678;23.244;2023-02-28T00:43:05;94543.44;;;6.87;nan
9277;BME280;4676;42.678;23.244;2023-02-28T00:45:31;94535.34;;;6.72;nan
9277;BME280;4676;42.678;23.244;2023-02-28T00:47:59;94534.47;;;6.74;nan
9277;BME280;4676;42.678;23.244;2023-02-28T00:50:26;94546.28;;;6.69;nan
9277;BME280;4676;42.678;23.244;2023-02-28T00:52:53;94541.84;;;6.83;nan
9277;BME280;4676;42.678;23.244;2023-02-28T00:55:20;94537.75;;;6.76;nan
9277;BME280;4676;42.678;23.244;2023-02-28T00:57:46;94535.28;;;6.75;nan
9277;BME280;4676;42.678;23.244;2023-02-28T01:00:14;94540.41;;;6.70;nan
9277;BME280;4676;42.678;23.244;2023-02-28T01:02:40;94531.38;;;6.59;nan
9277;BME280;4676;42.678;23.244;2023-02-28T01:05:09;94528.38;;;6.38;nan
9277;BME280;4676;42.678;23.244;2023-02-28T01:07:35;94523.34;;;6.37;nan
9277;BME280;4676;42.678;23.244;2023-02-28T01:10:04;94500.34;;;6.11;nan
9277;BME280;4676;42.678;23.244;2023-02-28T01:12:31;94533.75;;;6.19;nan
9277;BME280;4676;42.678;23.244;2023-02-28T01:14:57;94529.63;;;6.15;nan
9277;BME280;4676;42.678;23.244;2023-02-28T01:17:24;94530.59;;;6.06;nan
9277;BME280;4676;42.678;23.244;2023-02-28T01:19:53;94534.94;;;5.96;nan
9277;BME280;4676;42.678;23.244;2023-02-28T01:22:22;94535.81;;;5.94;nan
9277;BME280;4676;42.678;23.244;2023-02-28T01:24:48;94546.88;;;5.82;nan
9277;BME280;4676;42.678;23.244;2023-02-28T01:27:15;94542.69;;;5.81;nan
9277;BME280;4676;42.678;23.244;2023-02-28T01:29:42;94537.75;;;5.74;nan
9277;BME280;4676;42.678;23.244;2023-02-28T01:32:08;94528.63;;;5.68;nan
9277;BME280;4676;42.678;23.244;2023-02-28T01:34:35;94538.03;;;5.56;nan
9277;BME280;4676;42.678;23.244;2023-02-28T01:37:02;94539.91;;;5.40;nan
9277;BME280;4676;42.678;23.244;2023-02-28T01:39:30;94514.84;;;5.35;nan
9277;BME280;4676;42.678;23.244;2023-02-28T01:41:56;94533.16;;;5.45;nan
9277;BME280;4676;42.678;23.244;2023-02-28T01:44:59;94549.09;;;5.42;nan
9277;BME280;4676;42.678;23.244;2023-02-28T01:47:29;94539.78;;;5.49;nan
9277;BME280;4676;42.678;23.244;2023-02-28T01:49:58;94546.50;;;5.48;nan
9277;BME280;4676;42.678;23.244;2023-02-28T01:52:27;94543.13;;;5.51;nan
9277;BME280;4676;42.678;23.244;2023-02-28T01:54:58;94553.25;;;5.45;nan
9277;BME280;4676;42.678;23.244;2023-02-28T01:57:29;94555.75;;;5.46;nan
9277;BME280;4676;42.678;23.244;2023-02-28T02:00:05;94530.66;;;5.43;nan
9277;BME280;4676;42.678;23.244;2023-02-28T02:02:34;94547.31;;;5.52;nan
9277;BME280;4676;42.678;23.244;2023-02-28T02:05:04;94535.63;;;5.48;nan
9277;BME280;4676;42.678;23.244;2023-02-28T02:07:34;94544.69;;;5.58;nan
9277;BME280;4676;42.678;23.244;2023-02-28T02:10:06;94523.84;;;5.51;nan
9277;BME280;4676;42.678;23.244;2023-02-28T02:12:52;94540.56;;;5.52;nan
9277;BME280;4676;42.678;23.244;2023-02-28T02:15:26;94537.25;;;5.52;nan
9277;BME280;4676;42.678;23.244;2023-02-28T02:17:58;94535.47;;;5.57;nan
9277;BME280;4676;42.678;23.244;2023-02-28T02:21:07;94543.06;;;5.56;nan
9277;BME280;4676;42.678;23.244;2023-02-28T02:26:47;94536.94;;;5.73;nan
9277;BME280;4676;42.678;23.244;2023-02-28T02:29:35;94541.16;;;5.73;nan
9277;BME280;4676;42.678;23.244;2023-02-28T02:32:28;94532.19;;;5.55;nan
9277;BME280;4676;42.678;23.244;2023-02-28T02:35:07;94538.13;;;5.48;nan
9277;BME280;4676;42.678;23.244;2023-02-28T02:37:39;94536.38;;;5.53;nan
9277;BME280;4676;42.678;23.244;2023-02-28T02:40:11;94544.00;;;5.45;nan
9277;BME280;4676;42.678;23.244;2023-02-28T02:42:45;94545.03;;;5.32;nan
9277;BME280;4676;42.678;23.244;2023-02-28T02:45:18;94551.81;;;5.26;nan
9277;BME280;4676;42.678;23.244;2023-02-28T02:47:46;94545.25;;;5.16;nan
9277;BME280;4676;42.678;23.244;2023-02-28T02:50:21;94554.41;;;5.20;nan
9277;BME280;4676;42.678;23.244;2023-02-28T02:52:56;94552.72;;;5.22;nan
9277;BME280;4676;42.678;23.244;2023-02-28T02:55:25;94551.00;;;5.25;nan
9277;BME280;4676;42.678;23.244;2023-02-28T02:57:54;94542.63;;;5.25;nan
9277;BME280;4676;42.678;23.244;2023-02-28T03:00:26;94549.41;;;5.20;nan
9277;BME280;4676;42.678;23.244;2023-02-28T03:02:56;94550.94;;;5.28;nan
9277;BME280;4676;42.678;23.244;2023-02-28T03:05:26;94548.44;;;5.30;nan
9277;BME280;4676;42.678;23.244;2023-02-28T03:07:54;94556.75;;;5.32;nan
9277;BME280;4676;42.678;23.244;2023-02-28T03:10:36;94492.63;;;5.07;nan
9277;BME280;4676;42.678;23.244;2023-02-28T03:13:18;94567.50;;;5.44;nan
9277;BME280;4676;42.678;23.244;2023-02-28T03:15:58;94560.94;;;5.31;nan
9277;BME280;4676;42.678;23.244;2023-02-28T03:18:32;94570.19;;;5.31;nan
9277;BME280;4676;42.678;23.244;2023-02-28T03:21:08;94578.41;;;5.42;nan
9277;BME280;4676;42.678;23.244;2023-02-28T03:23:42;94580.91;;;5.45;nan
9277;BME280;4676;42.678;23.244;2023-02-28T03:26:17;94491.00;;;5.01;nan
9277;BME280;4676;42.678;23.244;2023-02-28T03:28:52;94592.47;;;5.58;nan
9277;BME280;4676;42.678;23.244;2023-02-28T03:31:25;94585.75;;;5.59;nan
9277;BME280;4676;42.678;23.244;2023-02-28T03:33:59;94587.38;;;5.63;nan
9277;BME280;4676;42.678;23.244;2023-02-28T03:36:32;94593.16;;;5.68;nan
9277;BME280;4676;42.678;23.244;2023-02-28T03:39:03;94596.56;;;5.65;nan
9277;BME280;4676;42.678;23.244;2023-02-28T03:41:36;94606.56;;;5.70;nan
9277;BME280;4676;42.678;23.244;2023-02-28T03:44:09;94605.59;;;5.78;nan
9277;BME280;4676;42.678;23.244;2023-02-28T03:46:44;94583.16;;;5.63;nan
9277;BME280;4676;42.678;23.244;2023-02-28T03:49:17;94612.22;;;5.87;nan
9277;BME280;4676;42.678;23.244;2023-02-28T03:51:48;94615.53;;;5.90;nan
9277;BME280;4676;42.678;23.244;2023-02-28T03:54:19;94613.84;;;5.91;nan
9277;BME280;4676;42.678;23.244;2023-02-28T03:56:51;94617.16;;;5.93;nan
9277;BME280;4676;42.678;23.244;2023-02-28T03:59:22;94614.63;;;5.94;nan
9277;BME280;4676;42.678;23.244;2023-02-28T04:01:52;94615.44;;;5.95;nan
9277;BME280;4676;42.678;23.244;2023-02-28T04:04:20;94609.72;;;5.87;nan
9277;BME280;4676;42.678;23.244;2023-02-28T04:06:51;94615.56;;;5.84;nan
9277;BME280;4676;42.678;23.244;2023-02-28T04:09:18;94596.50;;;5.70;nan
9277;BME280;4676;42.678;23.244;2023-02-28T04:11:50;94613.09;;;5.81;nan
9277;BME280;4676;42.678;23.244;2023-02-28T04:14:18;94610.84;;;5.62;nan
9277;BME280;4676;42.678;23.244;2023-02-28T04:16:45;94597.72;;;5.41;nan
9277;BME280;4676;42.678;23.244;2023-02-28T04:19:13;94611.78;;;5.53;nan
9277;BME280;4676;42.678;23.244;2023-02-28T04:21:41;94618.53;;;5.51;nan
9277;BME280;4676;42.678;23.244;2023-02-28T04:24:11;94608.28;;;5.65;nan
9277;BME280;4676;42.678;23.244;2023-02-28T04:26:41;94609.88;;;5.70;nan
9277;BME280;4676;42.678;23.244;2023-02-28T04:29:10;94607.31;;;5.76;nan
9277;BME280;4676;42.678;23.244;2023-02-28T04:31:37;94586.59;;;5.58;nan
9277;BME280;4676;42.678;23.244;2023-02-28T04:34:04;94610.75;;;5.69;nan
9277;BME280;4676;42.678;23.244;2023-02-28T04:36:31;94604.09;;;5.65;nan
9277;BME280;4676;42.678;23.244;2023-02-28T04:38:58;94615.19;;;5.52;nan
9277;BME280;4676;42.678;23.244;2023-02-28T04:41:27;94614.44;;;5.44;nan
9277;BME280;4676;42.678;23.244;2023-02-28T04:43:53;94616.91;;;5.47;nan
9277;BME280;4676;42.678;23.244;2023-02-28T04:46:22;94627.88;;;5.40;nan
9277;BME280;4676;42.678;23.244;2023-02-28T04:48:49;94631.31;;;5.31;nan
9277;BME280;4676;42.678;23.244;2023-02-28T04:51:17;94630.47;;;5.34;nan
9277;BME280;4676;42.678;23.244;2023-02-28T04:53:44;94634.69;;;5.29;nan
9277;BME280;4676;42.678;23.244;2023-02-28T04:56:12;94638.00;;;5.32;nan
9277;BME280;4676;42.678;23.244;2023-02-28T04:58:40;94629.66;;;5.30;nan
9277;BME280;4676;42.678;23.244;2023-02-28T05:01:18;94640.53;;;5.32;nan
9277;BME280;4676;42.678;23.244;2023-02-28T05:03:45;94638.00;;;5.34;nan
9277;BME280;4676;42.678;23.244;2023-02-28T05:06:12;94643.88;;;5.31;nan
9277;BME280;4676;42.678;23.244;2023-02-28T05:08:40;94643.84;;;5.37;nan
9277;BME280;4676;42.678;23.244;2023-02-28T05:11:13;94646.16;;;5.52;nan
9277;BME280;4676;42.678;23.244;2023-02-28T05:13:42;94640.44;;;5.41;nan
9277;BME280;4676;42.678;23.244;2023-02-28T05:16:08;94644.63;;;5.39;nan
9277;BME280;4676;42.678;23.244;2023-02-28T05:18:35;94650.53;;;5.37;nan
9277;BME280;4676;42.678;23.244;2023-02-28T05:21:02;94627.28;;;5.20;nan
9277;BME280;4676;42.678;23.244;2023-02-28T05:23:29;94649.69;;;5.36;nan
9277;BME280;4676;42.678;23.244;2023-02-28T05:25:56;94653.75;;;5.46;nan
9277;BME280;4676;42.678;23.244;2023-02-28T05:28:23;94652.84;;;5.53;nan
9277;BME280;4676;42.678;23.244;2023-02-28T05:30:51;94663.78;;;5.51;nan
9277;BME280;4676;42.678;23.244;2023-02-28T05:33:17;94665.38;;;5.58;nan
9277;BME280;4676;42.678;23.244;2023-02-28T05:35:44;94672.03;;;5.62;nan
9277;BME280;4676;42.678;23.244;2023-02-28T05:38:11;94667.75;;;5.67;nan
9277;BME280;4676;42.678;23.244;2023-02-28T05:40:38;94677.72;;;5.76;nan
9277;BME280;4676;42.678;23.244;2023-02-28T05:43:05;94679.22;;;5.92;nan
9277;BME280;4676;42.678;23.244;2023-02-28T05:45:32;94677.63;;;5.84;nan
9277;BME280;4676;42.678;23.244;2023-02-28T05:48:00;94685.19;;;5.81;nan
9277;BME280;4676;42.678;23.244;2023-02-28T05:50:27;94682.56;;;5.94;nan
9277;BME280;4676;42.678;23.244;2023-02-28T06:22:21;146968.94;;;22.99;100.00
9277;BME280;4676;42.678;23.244;2023-02-28T10:15:58;94671.34;;;8.45;nan
9277;BME280;4676;42.678;23.244;2023-02-28T10:18:40;94670.50;;;8.44;nan
9277;BME280;4676;42.678;23.244;2023-02-28T10:21:19;94666.03;;;8.57;nan
9277;BME280;4676;42.678;23.244;2023-02-28T10:23:48;94665.53;;;8.78;nan
9277;BME280;4676;42.678;23.244;2023-02-28T10:26:16;94648.81;;;9.07;nan
9277;BME280;4676;42.678;23.244;2023-02-28T10:28:44;94644.25;;;9.19;nan
9277;BME280;4676;42.678;23.244;2023-02-28T10:31:15;94651.47;;;9.33;nan
9277;BME280;4676;42.678;23.244;2023-02-28T10:33:43;94642.13;;;9.04;nan
9277;BME280;4676;42.678;23.244;2023-02-28T10:36:13;94620.16;;;9.06;nan
9277;BME280;4676;42.678;23.244;2023-02-28T10:38:43;94635.06;;;9.47;nan
9277;BME280;4676;42.678;23.244;2023-02-28T10:41:13;94627.28;;;9.55;nan
9277;BME280;4676;42.678;23.244;2023-02-28T10:43:42;94626.19;;;9.93;nan
9277;BME280;4676;42.678;23.244;2023-02-28T10:46:13;94616.44;;;10.09;nan
9277;BME280;4676;42.678;23.244;2023-02-28T10:49:01;94618.47;;;10.27;nan
9277;BME280;4676;42.678;23.244;2023-02-28T10:51:34;94599.91;;;10.52;nan
9277;BME280;4676;42.678;23.244;2023-02-28T10:54:03;94605.25;;;10.96;nan
9277;BME280;4676;42.678;23.244;2023-02-28T10:56:31;94604.09;;;10.80;nan
9277;BME280;4676;42.678;23.244;2023-02-28T10:59:00;94597.25;;;10.82;nan
9277;BME280;4676;42.678;23.244;2023-02-28T11:01:37;94588.69;;;10.86;nan
9277;BME280;4676;42.678;23.244;2023-02-28T11:04:16;94595.94;;;10.96;nan
9277;BME280;4676;42.678;23.244;2023-02-28T11:06:44;94578.91;;;11.00;nan
9277;BME280;4676;42.678;23.244;2023-02-28T11:09:20;94580.75;;;11.20;nan
9277;BME280;4676;42.678;23.244;2023-02-28T11:11:49;94564.63;;;11.22;nan
9277;BME280;4676;42.678;23.244;2023-02-28T11:14:20;94570.00;;;11.13;nan
9277;BME280;4676;42.678;23.244;2023-02-28T11:16:48;94576.72;;;11.14;nan
9277;BME280;4676;42.678;23.244;2023-02-28T11:19:19;94571.44;;;11.20;nan
9277;BME280;4676;42.678;23.244;2023-02-28T11:21:52;94569.38;;;11.07;nan
9277;BME280;4676;42.678;23.244;2023-02-28T11:24:23;94557.63;;;11.04;nan
9277;BME280;4676;42.678;23.244;2023-02-28T11:26:51;94565.38;;;11.24;nan
9277;BME280;4676;42.678;23.244;2023-02-28T11:29:20;94567.09;;;11.24;nan
9277;BME280;4676;42.678;23.244;2023-02-28T11:32:15;94565.91;;;11.09;nan
9277;BME280;4676;42.678;23.244;2023-02-28T11:34:43;94554.72;;;11.15;nan
9277;BME280;4676;42.678;23.244;2023-02-28T11:37:12;94553.41;;;11.28;nan
9277;BME280;4676;42.678;23.244;2023-02-28T11:39:41;94538.44;;;11.20;nan
9277;BME280;4676;42.678;23.244;2023-02-28T11:42:20;94543.47;;;11.45;nan
9277;BME280;4676;42.678;23.244;2023-02-28T11:44:58;94550.38;;;11.41;nan
9277;BME280;4676;42.678;23.244;2023-02-28T11:47:33;94555.19;;;11.72;nan
9277;BME280;4676;42.678;23.244;2023-02-28T11:50:16;94545.44;;;12.07;nan
9277;BME280;4676;42.678;23.244;2023-02-28T11:52:52;94545.53;;;12.25;nan
9277;BME280;4676;42.678;23.244;2023-02-28T11:55:24;94547.44;;;12.20;nan
9277;BME280;4676;42.678;23.244;2023-02-28T11:58:17;94546.25;;;12.07;nan
9277;BME280;4676;42.678;23.244;2023-02-28T12:01:05;94545.69;;;11.77;nan
9277;BME280;4676;42.678;23.244;2023-02-28T12:03:44;94543.47;;;11.45;nan
9277;BME280;4676;42.678;23.244;2023-02-28T12:06:22;94538.00;;;11.56;nan
9277;BME280;4676;42.678;23.244;2023-02-28T12:09:03;94550.00;;;11.75;nan
9277;BME280;4676;42.678;23.244;2023-02-28T12:11:44;94539.22;;;11.69;nan
9277;BME280;4676;42.678;23.244;2023-02-28T12:14:44;94540.16;;;11.66;nan
9277;BME280;4676;42.678;23.244;2023-02-28T12:17:32;94543.88;;;11.81;nan
9277;BME280;4676;42.678;23.244;2023-02-28T12:20:10;94540.22;;;11.88;nan
9277;BME280;4676;42.678;23.244;2023-02-28T12:22:47;94537.97;;;11.80;nan
9277;BME280;4676;42.678;23.244;2023-02-28T12:25:24;94530.06;;;11.88;nan
9277;BME280;4676;42.678;23.244;2023-02-28T12:28:00;94528.56;;;12.04;nan
9277;BME280;4676;42.678;23.244;2023-02-28T12:30:30;94541.06;;;11.88;nan
9277;BME280;4676;42.678;23.244;2023-02-28T12:33:03;94531.56;;;11.70;nan
9277;BME280;4676;42.678;23.244;2023-02-28T12:35:34;94519.88;;;11.20;nan
9277;BME280;4676;42.678;23.244;2023-02-28T12:38:05;94531.19;;;11.34;nan
9277;BME280;4676;42.678;23.244;2023-02-28T12:40:42;94533.69;;;11.36;nan
9277;BME280;4676;42.678;23.244;2023-02-28T12:43:13;94527.81;;;11.57;nan
9277;BME280;4676;42.678;23.244;2023-02-28T12:45:45;94530.84;;;11.67;nan
9277;BME280;4676;42.678;23.244;2023-02-28T12:48:16;94528.19;;;11.70;nan
9277;BME280;4676;42.678;23.244;2023-02-28T12:50:45;94527.41;;;11.68;nan
9277;BME280;4676;42.678;23.244;2023-02-28T12:53:17;94529.69;;;11.75;nan
9277;BME280;4676;42.678;23.244;2023-02-28T12:55:52;94524.69;;;11.74;nan
9277;BME280;4676;42.678;23.244;2023-02-28T12:58:28;94525.38;;;11.31;nan
9277;BME280;4676;42.678;23.244;2023-02-28T13:01:21;94528.16;;;11.25;nan
9277;BME280;4676;42.678;23.244;2023-02-28T13:04:11;94526.00;;;11.37;nan
9277;BME280;4676;42.678;23.244;2023-02-28T13:06:56;94520.75;;;11.42;nan
9277;BME280;4676;42.678;23.244;2023-02-28T13:09:26;94518.66;;;11.53;nan
9277;BME280;4676;42.678;23.244;2023-02-28T13:11:55;94515.31;;;11.51;nan
9277;BME280;4676;42.678;23.244;2023-02-28T13:14:26;94505.19;;;11.51;nan
9277;BME280;4676;42.678;23.244;2023-02-28T13:16:58;94522.50;;;11.40;nan
9277;BME280;4676;42.678;23.244;2023-02-28T13:19:27;94517.41;;;11.18;nan
9277;BME280;4676;42.678;23.244;2023-02-28T13:21:55;94518.16;;;11.20;nan
9277;BME280;4676;42.678;23.244;2023-02-28T13:24:45;94505.28;;;11.01;nan
9277;BME280;4676;42.678;23.244;2023-02-28T13:27:34;94502.19;;;11.18;nan
9277;BME280;4676;42.678;23.244;2023-02-28T13:33:23;94504.06;;;11.36;nan
9277;BME280;4676;42.678;23.244;2023-02-28T13:36:11;94511.00;;;11.31;nan
9277;BME280;4676;42.678;23.244;2023-02-28T13:38:49;94503.03;;;11.40;nan
9277;BME280;4676;42.678;23.244;2023-02-28T13:41:40;94501.59;;;11.57;nan
9277;BME280;4676;42.678;23.244;2023-02-28T13:44:08;94497.44;;;11.54;nan
9277;BME280;4676;42.678;23.244;2023-02-28T13:49:41;94490.78;;;11.51;nan
9277;BME280;4676;42.678;23.244;2023-02-28T13:52:14;94491.41;;;11.35;nan
9277;BME280;4676;42.678;23.244;2023-02-28T13:54:56;94480.91;;;11.22;nan
9277;BME280;4676;42.678;23.244;2023-02-28T13:57:33;94477.19;;;11.08;nan
9277;BME280;4676;42.678;23.244;2023-02-28T14:00:17;94487.66;;;10.98;nan
9277;BME280;4676;42.678;23.244;2023-02-28T14:03:03;94486.88;;;10.96;nan
9277;BME280;4676;42.678;23.244;2023-02-28T14:05:34;94483.38;;;11.00;nan
9277;BME280;4676;42.678;23.244;2023-02-28T14:08:05;94484.47;;;10.93;nan
9277;BME280;4676;42.678;23.244;2023-02-28T14:10:38;94487.97;;;10.89;nan
9277;BME280;4676;42.678;23.244;2023-02-28T14:13:13;94491.47;;;10.87;nan
9277;BME280;4676;42.678;23.244;2023-02-28T14:15:47;94484.00;;;10.82;nan
9277;BME280;4676;42.678;23.244;2023-02-28T14:18:20;94487.25;;;10.86;nan
9277;BME280;4676;42.678;23.244;2023-02-28T14:20:48;94484.50;;;10.92;nan
9277;BME280;4676;42.678;23.244;2023-02-28T14:23:24;94484.63;;;10.89;nan
9277;BME280;4676;42.678;23.244;2023-02-28T14:26:02;94476.19;;;10.64;nan
9277;BME280;4676;42.678;23.244;2023-02-28T14:28:44;94479.59;;;10.63;nan
9277;BME280;4676;42.678;23.244;2023-02-28T14:31:18;94480.06;;;10.49;nan
9277;BME280;4676;42.678;23.244;2023-02-28T14:34:00;94486.66;;;10.55;nan
9277;BME280;4676;42.678;23.244;2023-02-28T14:36:33;94464.22;;;10.44;nan
9277;BME280;4676;42.678;23.244;2023-02-28T14:39:05;94483.50;;;10.48;nan
9277;BME280;4676;42.678;23.244;2023-02-28T14:41:35;94479.94;;;10.53;nan
9277;BME280;4676;42.678;23.244;2023-02-28T14:44:13;94487.31;;;10.60;nan
9277;BME280;4676;42.678;23.244;2023-02-28T14:46:40;94482.41;;;10.55;nan
9277;BME280;4676;42.678;23.244;2023-02-28T14:49:16;94474.81;;;10.55;nan
9277;BME280;4676;42.678;23.244;2023-02-28T14:51:43;94479.44;;;10.42;nan
9277;BME280;4676;42.678;23.244;2023-02-28T14:54:15;94478.50;;;10.45;nan
9277;BME280;4676;42.678;23.244;2023-02-28T14:56:42;94481.38;;;10.36;nan
9277;BME280;4676;42.678;23.244;2023-02-28T14:59:27;94486.19;;;10.17;nan
9277;BME280;4676;42.678;23.244;2023-02-28T15:02:16;94487.00;;;10.19;nan
9277;BME280;4676;42.678;23.244;2023-02-28T15:04:52;94487.03;;;10.18;nan
9277;BME280;4676;42.678;23.244;2023-02-28T15:07:19;94481.00;;;9.94;nan
9277;BME280;4676;42.678;23.244;2023-02-28T15:10:07;94477.16;;;9.82;nan
9277;BME280;4676;42.678;23.244;2023-02-28T15:12:34;94476.38;;;9.80;nan
9277;BME280;4676;42.678;23.244;2023-02-28T15:15:01;94474.69;;;9.81;nan
9277;BME280;4676;42.678;23.244;2023-02-28T15:17:29;94473.94;;;9.77;nan
9277;BME280;4676;42.678;23.244;2023-02-28T15:19:58;94477.38;;;9.75;nan
9277;BME280;4676;42.678;23.244;2023-02-28T15:22:28;94473.03;;;9.78;nan
9277;BME280;4676;42.678;23.244;2023-02-28T15:24:56;94470.72;;;9.72;nan
9277;BME280;4676;42.678;23.244;2023-02-28T15:27:25;94482.75;;;9.64;nan
9277;BME280;4676;42.678;23.244;2023-02-28T15:29:55;94481.13;;;9.63;nan
9277;BME280;4676;42.678;23.244;2023-02-28T15:32:27;94489.59;;;9.62;nan
9277;BME280;4676;42.678;23.244;2023-02-28T15:34:54;94483.03;;;9.57;nan
9277;BME280;4676;42.678;23.244;2023-02-28T15:37:44;94495.72;;;9.53;nan
9277;BME280;4676;42.678;23.244;2023-02-28T15:40:14;94493.28;;;9.52;nan
9277;BME280;4676;42.678;23.244;2023-02-28T15:42:42;94482.41;;;9.48;nan
9277;BME280;4676;42.678;23.244;2023-02-28T15:45:44;94493.13;;;9.29;nan
9277;BME280;4676;42.678;23.244;2023-02-28T15:48:16;94484.91;;;9.21;nan
9277;BME280;4676;42.678;23.244;2023-02-28T15:50:48;94498.19;;;9.29;nan
9277;BME280;4676;42.678;23.244;2023-02-28T15:53:19;94501.03;;;9.17;nan
9277;BME280;4676;42.678;23.244;2023-02-28T15:55:53;94490.16;;;9.15;nan
9277;BME280;4676;42.678;23.244;2023-02-28T15:58:22;94493.03;;;9.01;nan
9277;BME280;4676;42.678;23.244;2023-02-28T16:03:44;94499.88;;;8.97;nan
9277;BME280;4676;42.678;23.244;2023-02-28T16:06:34;94507.53;;;8.96;nan
9277;BME280;4676;42.678;23.244;2023-02-28T16:09:05;94517.75;;;8.91;nan
9277;BME280;4676;42.678;23.244;2023-02-28T16:11:34;94512.88;;;8.85;nan
9277;BME280;4676;42.678;23.244;2023-02-28T16:14:02;94521.09;;;8.92;nan
9277;BME280;4676;42.678;23.244;2023-02-28T16:16:30;94522.78;;;8.93;nan
9277;BME280;4676;42.678;23.244;2023-02-28T16:18:57;94531.34;;;8.87;nan
9277;BME280;4676;42.678;23.244;2023-02-28T16:21:25;94524.91;;;8.76;nan
9277;BME280;4676;42.678;23.244;2023-02-28T16:23:52;94536.84;;;8.71;nan
9277;BME280;4676;42.678;23.244;2023-02-28T16:26:22;94540.09;;;8.42;nan
9277;BME280;4676;42.678;23.244;2023-02-28T16:28:51;94545.88;;;8.45;nan
9277;BME280;4676;42.678;23.244;2023-02-28T16:31:18;94552.13;;;8.32;nan
9277;BME280;4676;42.678;23.244;2023-02-28T16:33:45;94550.91;;;8.12;nan
9277;BME280;4676;42.678;23.244;2023-02-28T16:36:14;94554.25;;;8.12;nan
9277;BME280;4676;42.678;23.244;2023-02-28T16:38:41;94563.63;;;8.07;nan
9277;BME280;4676;42.678;23.244;2023-02-28T16:41:15;94554.44;;;8.04;nan
9277;BME280;4676;42.678;23.244;2023-02-28T16:43:47;94552.81;;;8.02;nan
9277;BME280;4676;42.678;23.244;2023-02-28T16:46:15;94571.41;;;7.98;nan
9277;BME280;4676;42.678;23.244;2023-02-28T16:48:43;94576.63;;;7.90;nan
9277;BME280;4676;42.678;23.244;2023-02-28T16:51:13;94574.13;;;7.89;nan
9277;BME280;4676;42.678;23.244;2023-02-28T16:53:40;94585.88;;;7.91;nan
9277;BME280;4676;42.678;23.244;2023-02-28T16:56:15;94579.75;;;8.00;nan
9277;BME280;4676;42.678;23.244;2023-02-28T16:58:42;94588.34;;;7.93;nan
9277;BME280;4676;42.678;23.244;2023-02-28T17:01:10;94577.56;;;7.85;nan
9277;BME280;4676;42.678;23.244;2023-02-28T17:03:37;94583.50;;;7.84;nan
9277;BME280;4676;42.678;23.244;2023-02-28T17:06:06;94597.97;;;7.76;nan
9277;BME280;4676;42.678;23.244;2023-02-28T17:08:33;94594.81;;;7.66;nan
9277;BME280;4676;42.678;23.244;2023-02-28T17:11:00;94589.84;;;7.63;nan
9277;BME280;4676;42.678;23.244;2023-02-28T17:13:28;94593.97;;;7.66;nan
9277;BME280;4676;42.678;23.244;2023-02-28T17:15:54;94589.88;;;7.60;nan
9277;BME280;4676;42.678;23.244;2023-02-28T17:18:22;94585.72;;;7.58;nan
9277;BME280;4676;42.678;23.244;2023-02-28T17:20:49;94589.16;;;7.55;nan
9277;BME280;4676;42.678;23.244;2023-02-28T17:23:16;94580.88;;;7.48;nan
9277;BME280;4676;42.678;23.244;2023-02-28T17:25:42;94581.00;;;7.42;nan
9277;BME280;4676;42.678;23.244;2023-02-28T17:28:18;94586.81;;;7.46;nan
9277;BME280;4676;42.678;23.244;2023-02-28T17:30:45;94591.03;;;7.45;nan
9277;BME280;4676;42.678;23.244;2023-02-28T17:33:13;94580.34;;;7.33;nan
9277;BME280;4676;42.678;23.244;2023-02-28T17:35:41;94583.22;;;7.16;nan
9277;BME280;4676;42.678;23.244;2023-02-28T17:38:15;94567.50;;;7.03;nan
9277;BME280;4676;42.678;23.244;2023-02-28T17:40:41;94588.25;;;7.16;nan
9277;BME280;4676;42.678;23.244;2023-02-28T17:43:08;94578.25;;;7.12;nan
9277;BME280;4676;42.678;23.244;2023-02-28T17:45:35;94563.91;;;7.15;nan
9277;BME280;4676;42.678;23.244;2023-02-28T17:48:02;94565.66;;;7.12;nan
9277;BME280;4676;42.678;23.244;2023-02-28T17:50:29;94569.84;;;7.11;nan
9277;BME280;4676;42.678;23.244;2023-02-28T17:52:58;94573.31;;;7.07;nan
9277;BME280;4676;42.678;23.244;2023-02-28T17:55:24;94566.19;;;6.83;nan
9277;BME280;4676;42.678;23.244;2023-02-28T17:57:51;94574.56;;;6.83;nan
9277;BME280;4676;42.678;23.244;2023-02-28T18:00:19;94563.78;;;6.78;nan
9277;BME280;4676;42.678;23.244;2023-02-28T18:02:47;94579.91;;;6.68;nan
9277;BME280;4676;42.678;23.244;2023-02-28T18:05:14;94574.09;;;6.65;nan
9277;BME280;4676;42.678;23.244;2023-02-28T18:07:41;94564.97;;;6.58;nan
9277;BME280;4676;42.678;23.244;2023-02-28T18:10:13;94573.34;;;6.58;nan
9277;BME280;4676;42.678;23.244;2023-02-28T18:12:44;94576.75;;;6.56;nan
9277;BME280;4676;42.678;23.244;2023-02-28T18:15:11;94586.00;;;6.55;nan
9277;BME280;4676;42.678;23.244;2023-02-28T18:17:38;94584.25;;;6.59;nan
9277;BME280;4676;42.678;23.244;2023-02-28T18:20:05;94584.47;;;6.45;nan
9277;BME280;4676;42.678;23.244;2023-02-28T18:22:32;94579.44;;;6.45;nan
9277;BME280;4676;42.678;23.244;2023-02-28T18:24:59;94572.03;;;6.37;nan
9277;BME280;4676;42.678;23.244;2023-02-28T18:27:27;94543.84;;;6.17;nan
9277;BME280;4676;42.678;23.244;2023-02-28T18:29:54;94556.25;;;6.28;nan
9277;BME280;4676;42.678;23.244;2023-02-28T18:32:21;94585.31;;;6.45;nan
9277;BME280;4676;42.678;23.244;2023-02-28T18:34:47;94584.38;;;6.51;nan
9277;BME280;4676;42.678;23.244;2023-02-28T18:37:14;94578.38;;;6.58;nan
9277;BME280;4676;42.678;23.244;2023-02-28T18:39:43;94571.78;;;6.51;nan